CNS weather

Cairns International Airport
Cairns, Queensland, Australia

Public forecast

Using degrees Celsius for public forecast. Weather courtesy of forecast.io.

METAR (pilot weather report)

Retrieved 2017/08/16 20:30 UTC (22 minutes ago):

YBCS 162030Z 15007KT 9999 FEW025 19/16 Q1015 NOSIG

TAF (pilot weather forecast)

Retrieved 2017/08/16 18:00 UTC (3 hours ago):

TAF YBCS 161729Z 1618/1718 15008KT 9999 FEW025 SCT040 FM170200 05012KT 9999 FEW030 FM170800 14005KT 9999 FEW025 SCT040